Time;durP1;ratioP1;P1;durP2;ratioP2;P2;SDS_P1;SDS_P2;PMS_P1;PMS_P2;Temp;Humidity;BMP_temperature;BMP_pressure;BME280_temperature;BME280_humidity;BME280_pressure;Samples;Min_cycle;Max_cycle;Signal;HPM_P1;HPM_P2
2021/05/01 00:01:18;;;;;;;10.52;5.88;;;23.30;36.10;;;;;;6223584;28;80538;-63
2021/05/01 00:04:18;;;;;;;10.18;6.03;;;23.30;36.20;;;;;;6221981;28;80454;-64
2021/05/01 00:07:19;;;;;;;10.52;6.43;;;23.30;35.90;;;;;;6208736;28;83837;-63
2021/05/01 00:10:19;;;;;;;9.68;5.82;;;23.30;35.80;;;;;;6219583;28;80320;-64
2021/05/01 00:13:20;;;;;;;9.02;6.05;;;23.30;36.10;;;;;;6212207;28;81396;-64
2021/05/01 00:16:20;;;;;;;9.65;6.25;;;23.30;36.10;;;;;;6227052;28;80365;-64
2021/05/01 00:19:21;;;;;;;9.63;6.22;;;23.30;36.10;;;;;;6231263;28;80426;-64
2021/05/01 00:22:21;;;;;;;10.65;6.28;;;23.30;36.00;;;;;;6224900;28;80494;-64
2021/05/01 00:25:22;;;;;;;13.10;6.82;;;23.30;35.80;;;;;;6229250;28;80899;-64
2021/05/01 00:28:22;;;;;;;10.50;6.13;;;23.30;35.90;;;;;;6221866;28;80505;-64
2021/05/01 00:31:24;;;;;;;11.25;5.70;;;23.30;36.00;;;;;;6231053;28;80519;-63
2021/05/01 00:34:24;;;;;;;9.52;5.78;;;23.30;36.00;;;;;;6228841;28;81385;-64
2021/05/01 00:37:25;;;;;;;13.30;6.95;;;23.30;36.10;;;;;;6227792;28;81691;-64
2021/05/01 00:40:25;;;;;;;11.80;5.72;;;23.30;35.90;;;;;;6230785;28;81310;-64
2021/05/01 00:43:26;;;;;;;12.55;6.45;;;23.30;36.10;;;;;;6227458;28;80943;-64
2021/05/01 00:46:26;;;;;;;13.05;6.60;;;23.30;36.30;;;;;;6222745;28;80434;-64
2021/05/01 00:49:27;;;;;;;12.68;6.35;;;23.30;35.60;;;;;;6228085;28;81637;-64
2021/05/01 00:52:27;;;;;;;12.80;6.47;;;23.30;36.10;;;;;;6225853;28;81086;-63
2021/05/01 00:55:28;;;;;;;9.60;6.03;;;23.30;35.80;;;;;;6229471;28;80619;-64
2021/05/01 00:58:28;;;;;;;12.77;6.57;;;23.30;36.20;;;;;;6229621;28;80191;-64
2021/05/01 01:01:29;;;;;;;10.02;5.80;;;23.30;35.90;;;;;;6221184;28;80454;-64
2021/05/01 01:04:30;;;;;;;7.97;5.40;;;23.30;35.80;;;;;;6228510;28;82372;-65
2021/05/01 01:07:30;;;;;;;7.60;5.60;;;23.30;36.20;;;;;;6220686;28;81539;-64
2021/05/01 01:10:31;;;;;;;9.15;5.70;;;23.30;35.90;;;;;;6225154;28;80465;-64
2021/05/01 01:13:32;;;;;;;11.55;6.60;;;23.30;35.90;;;;;;6217440;28;80521;-64
2021/05/01 01:16:32;;;;;;;9.07;5.53;;;23.30;35.90;;;;;;6188394;28;81254;-64
2021/05/01 01:19:37;;;;;;;9.68;6.40;;;23.30;36.00;;;;;;6226249;28;80884;-64
2021/05/01 01:22:37;;;;;;;11.55;5.65;;;23.30;36.00;;;;;;6226519;28;83022;-65
2021/05/01 01:25:38;;;;;;;8.60;6.05;;;23.30;35.90;;;;;;6225038;28;81328;-65
2021/05/01 01:28:38;;;;;;;8.25;5.70;;;23.30;35.80;;;;;;6225948;28;80922;-66
2021/05/01 01:31:39;;;;;;;11.60;5.53;;;23.30;35.60;;;;;;6226113;28;80374;-65
2021/05/01 01:34:39;;;;;;;10.05;6.22;;;23.30;35.50;;;;;;6226884;28;81862;-64
2021/05/01 01:37:40;;;;;;;11.77;6.90;;;23.30;35.60;;;;;;6225291;28;80799;-65
2021/05/01 01:40:42;;;;;;;8.45;5.85;;;23.20;35.50;;;;;;6228016;28;80736;-64
2021/05/01 01:43:43;;;;;;;19.02;6.82;;;23.20;35.30;;;;;;6231251;28;81281;-65
2021/05/01 01:46:43;;;;;;;10.18;6.00;;;23.20;35.50;;;;;;6229855;28;80502;-65
2021/05/01 01:49:44;;;;;;;8.60;5.93;;;23.20;35.60;;;;;;6231327;28;81467;-65
2021/05/01 01:52:44;;;;;;;9.30;6.50;;;23.20;35.70;;;;;;6231067;28;80456;-65
2021/05/01 01:55:45;;;;;;;10.82;5.55;;;23.20;35.70;;;;;;6230213;28;80623;-66
2021/05/01 01:58:45;;;;;;;11.02;6.78;;;23.20;35.30;;;;;;6231710;28;81367;-66
2021/05/01 02:01:46;;;;;;;10.65;6.45;;;23.20;35.60;;;;;;6232210;28;81387;-66
2021/05/01 02:04:46;;;;;;;9.63;6.07;;;23.20;35.60;;;;;;6228951;28;82422;-65
2021/05/01 02:07:47;;;;;;;9.90;6.05;;;23.20;35.30;;;;;;6228323;28;80456;-66
2021/05/01 02:10:47;;;;;;;10.65;6.22;;;23.20;35.20;;;;;;6229805;28;81108;-65
2021/05/01 02:13:48;;;;;;;10.13;5.82;;;23.20;35.40;;;;;;6232451;28;80808;-65
2021/05/01 02:16:48;;;;;;;8.55;6.15;;;23.20;35.40;;;;;;6228591;28;80527;-66
2021/05/01 02:19:49;;;;;;;10.20;5.85;;;23.10;35.60;;;;;;6232703;28;80430;-65
2021/05/01 02:22:49;;;;;;;7.80;5.63;;;23.20;35.60;;;;;;6229735;28;81838;-65
2021/05/01 02:25:50;;;;;;;9.35;5.72;;;23.20;35.50;;;;;;6231227;28;81269;-65
2021/05/01 02:28:50;;;;;;;12.20;5.80;;;23.20;35.30;;;;;;6222296;28;80402;-65
2021/05/01 02:31:51;;;;;;;8.82;5.70;;;23.20;35.80;;;;;;6225947;28;81043;-65
2021/05/01 02:34:51;;;;;;;9.05;5.88;;;23.20;35.50;;;;;;6207179;28;82927;-64
2021/05/01 02:37:52;;;;;;;10.00;5.68;;;23.20;35.60;;;;;;6231008;28;80473;-65
2021/05/01 02:40:52;;;;;;;11.80;5.57;;;23.20;35.50;;;;;;6230543;28;80571;-64
2021/05/01 02:43:53;;;;;;;7.72;5.30;;;23.20;35.70;;;;;;6231760;28;80484;-64
2021/05/01 02:46:53;;;;;;;9.50;5.75;;;23.20;35.50;;;;;;6232023;28;82810;-63
2021/05/01 02:49:54;;;;;;;8.73;6.38;;;23.20;35.20;;;;;;6231639;28;81017;-63
2021/05/01 02:52:54;;;;;;;9.10;5.47;;;23.20;35.30;;;;;;6229907;28;82686;-63
2021/05/01 02:55:55;;;;;;;9.40;5.50;;;23.20;35.30;;;;;;6230371;28;80474;-64
2021/05/01 02:58:55;;;;;;;9.40;5.63;;;23.20;35.40;;;;;;6212469;28;81798;-64
2021/05/01 03:01:56;;;;;;;8.48;5.45;;;23.20;35.60;;;;;;6231755;28;80555;-64
2021/05/01 03:04:56;;;;;;;9.82;5.75;;;23.20;35.60;;;;;;6213528;28;80317;-64
2021/05/01 03:07:57;;;;;;;8.88;5.53;;;23.20;35.50;;;;;;6232731;28;81117;-64
2021/05/01 03:10:57;;;;;;;8.27;5.82;;;23.20;35.20;;;;;;6230939;28;81496;-64
2021/05/01 03:13:58;;;;;;;9.23;5.60;;;23.10;35.00;;;;;;6231206;28;81807;-64
2021/05/01 03:16:58;;;;;;;13.50;6.10;;;23.20;35.40;;;;;;6223113;28;80673;-65
2021/05/01 03:19:59;;;;;;;11.73;5.78;;;23.20;35.40;;;;;;6229430;28;81462;-65
2021/05/01 03:23:00;;;;;;;8.00;5.28;;;23.20;35.20;;;;;;6232109;28;80359;-65
2021/05/01 03:26:01;;;;;;;8.80;6.25;;;23.20;35.30;;;;;;6231513;28;80363;-65
2021/05/01 03:29:01;;;;;;;9.48;5.72;;;23.20;35.10;;;;;;6231007;28;80463;-65
2021/05/01 03:32:02;;;;;;;7.05;5.22;;;23.20;35.30;;;;;;6228469;28;80560;-65
2021/05/01 03:35:02;;;;;;;7.47;5.22;;;23.20;35.20;;;;;;6230070;28;80774;-65
2021/05/01 03:38:03;;;;;;;9.10;5.60;;;23.20;35.60;;;;;;6231717;28;80108;-65
2021/05/01 03:41:04;;;;;;;8.15;5.47;;;23.20;35.20;;;;;;6226883;28;81078;-65
2021/05/01 03:44:04;;;;;;;6.97;5.03;;;23.20;35.20;;;;;;6231697;28;80430;-64
2021/05/01 03:47:05;;;;;;;6.63;4.88;;;23.20;35.70;;;;;;6228402;28;82269;-64
2021/05/01 03:50:05;;;;;;;10.20;5.70;;;23.20;35.60;;;;;;6227875;28;88764;-64
2021/05/01 03:53:06;;;;;;;7.28;5.05;;;23.10;35.40;;;;;;6203616;28;81711;-65
2021/05/01 03:56:06;;;;;;;7.75;5.10;;;23.10;35.50;;;;;;6228040;28;80861;-63
2021/05/01 03:59:07;;;;;;;9.43;5.32;;;23.10;35.60;;;;;;6218720;28;80837;-65
2021/05/01 04:02:07;;;;;;;9.90;5.35;;;23.10;35.60;;;;;;6230522;28;80971;-65
2021/05/01 04:05:08;;;;;;;8.18;5.15;;;23.10;35.80;;;;;;6227854;28;82565;-65
2021/05/01 04:08:08;;;;;;;6.47;5.00;;;23.10;35.50;;;;;;6227628;28;80731;-65
2021/05/01 04:11:10;;;;;;;7.32;4.80;;;23.10;35.60;;;;;;6223376;28;82404;-65
2021/05/01 04:14:11;;;;;;;7.07;5.07;;;23.20;35.90;;;;;;6228128;28;80341;-65
2021/05/01 04:17:11;;;;;;;7.97;5.03;;;23.20;35.60;;;;;;6225780;28;80623;-64
2021/05/01 04:20:12;;;;;;;7.45;4.93;;;23.10;35.60;;;;;;6237736;28;80962;-65
2021/05/01 04:23:12;;;;;;;6.40;4.68;;;23.20;35.60;;;;;;6227469;28;81776;-64
2021/05/01 04:26:13;;;;;;;11.00;5.20;;;23.20;36.10;;;;;;6228833;28;81576;-61
2021/05/01 04:29:13;;;;;;;6.60;4.28;;;23.20;36.10;;;;;;6227246;28;81972;-63
2021/05/01 04:32:14;;;;;;;7.68;4.53;;;23.20;36.00;;;;;;6232519;28;80385;-61
2021/05/01 04:35:14;;;;;;;5.43;4.43;;;23.20;36.30;;;;;;6209082;28;83265;-65
2021/05/01 04:38:15;;;;;;;6.63;4.40;;;23.10;36.20;;;;;;6234598;28;92037;-64
2021/05/01 04:41:15;;;;;;;6.90;4.40;;;23.10;36.70;;;;;;6237253;28;80505;-66
2021/05/01 04:44:16;;;;;;;6.13;4.60;;;23.20;36.30;;;;;;6236991;28;80219;-65
2021/05/01 04:47:16;;;;;;;6.30;4.30;;;23.20;37.50;;;;;;6231735;28;80429;-65
2021/05/01 04:50:17;;;;;;;13.30;4.80;;;23.10;36.80;;;;;;6226401;28;80364;-66
2021/05/01 04:53:17;;;;;;;6.10;4.18;;;23.20;36.90;;;;;;6229871;28;80492;-66
2021/05/01 04:56:18;;;;;;;6.68;4.35;;;23.20;36.70;;;;;;6228564;28;81165;-65
2021/05/01 04:59:18;;;;;;;10.18;4.35;;;23.30;37.50;;;;;;6211354;28;82269;-64
2021/05/01 05:02:19;;;;;;;8.82;4.90;;;23.30;37.60;;;;;;6228098;28;80649;-64
2021/05/01 05:05:19;;;;;;;14.30;4.10;;;23.30;37.10;;;;;;6227999;28;80816;-62
2021/05/01 05:08:20;;;;;;;7.47;4.35;;;23.30;37.70;;;;;;6214393;28;83376;-66
2021/05/01 05:11:20;;;;;;;11.63;4.75;;;23.30;37.20;;;;;;6230256;28;81212;-65
2021/05/01 05:14:21;;;;;;;6.97;4.28;;;23.30;36.80;;;;;;6219139;28;81618;-65
2021/05/01 05:17:21;;;;;;;7.95;4.25;;;23.30;37.20;;;;;;6228072;28;81267;-65
2021/05/01 05:20:23;;;;;;;10.35;4.10;;;23.20;37.30;;;;;;6233499;28;80501;-65
2021/05/01 05:23:23;;;;;;;5.68;4.15;;;23.20;37.40;;;;;;6231543;28;80613;-66
2021/05/01 05:26:24;;;;;;;5.93;4.30;;;23.30;38.30;;;;;;6212482;28;80388;-65
2021/05/01 05:29:24;;;;;;;7.88;4.65;;;23.30;39.50;;;;;;6237014;28;80401;-65
2021/05/01 05:32:25;;;;;;;6.90;3.90;;;23.30;39.10;;;;;;6231900;28;81658;-65
2021/05/01 05:35:25;;;;;;;9.10;3.92;;;23.30;39.00;;;;;;6213624;28;81358;-66
2021/05/01 05:38:26;;;;;;;7.72;4.03;;;23.30;38.80;;;;;;6232025;28;80873;-66
2021/05/01 05:41:28;;;;;;;5.85;4.00;;;23.30;38.30;;;;;;6216991;28;82850;-65
2021/05/01 05:44:30;;;;;;;5.70;4.28;;;23.30;39.90;;;;;;6238393;28;80536;-65
2021/05/01 05:47:30;;;;;;;6.97;4.55;;;23.30;40.00;;;;;;6229102;28;80931;-65
2021/05/01 05:50:31;;;;;;;4.97;3.95;;;23.30;40.00;;;;;;6230930;28;82192;-66
2021/05/01 05:53:31;;;;;;;7.75;4.63;;;23.30;40.70;;;;;;6238032;28;80159;-65
2021/05/01 05:56:32;;;;;;;11.35;5.10;;;23.30;41.00;;;;;;6235748;28;80584;-66
2021/05/01 05:59:32;;;;;;;8.98;4.72;;;23.30;40.90;;;;;;6235104;28;80628;-65
2021/05/01 06:02:33;;;;;;;7.72;4.35;;;23.40;40.90;;;;;;6230426;28;80557;-67
2021/05/01 06:05:33;;;;;;;13.13;5.28;;;23.40;41.00;;;;;;6238492;28;80955;-65
2021/05/01 06:08:34;;;;;;;8.32;4.88;;;23.30;40.90;;;;;;6235651;28;80245;-65
2021/05/01 06:11:34;;;;;;;7.43;4.85;;;23.30;40.80;;;;;;6228456;28;80503;-63
2021/05/01 06:14:35;;;;;;;9.35;4.38;;;23.30;40.90;;;;;;6232672;28;80522;-62
2021/05/01 06:17:35;;;;;;;6.03;3.78;;;23.40;40.90;;;;;;6231765;28;80911;-66
2021/05/01 06:20:36;;;;;;;7.97;4.90;;;23.40;40.70;;;;;;6235658;28;80454;-65
2021/05/01 06:23:36;;;;;;;6.80;4.65;;;23.30;40.40;;;;;;6236754;28;81332;-65
2021/05/01 06:26:37;;;;;;;6.63;4.57;;;23.40;40.30;;;;;;6211796;28;82082;-66
2021/05/01 06:29:37;;;;;;;7.72;4.25;;;23.40;40.00;;;;;;6232976;28;80470;-65
2021/05/01 06:32:38;;;;;;;9.90;5.07;;;23.40;40.00;;;;;;6239954;28;81907;-65
2021/05/01 06:35:39;;;;;;;9.63;4.85;;;23.40;40.30;;;;;;6235486;28;80090;-63
2021/05/01 06:38:40;;;;;;;5.80;4.43;;;23.40;40.00;;;;;;6229748;28;80926;-66
2021/05/01 06:41:43;;;;;;;12.88;5.07;;;23.40;40.10;;;;;;6232571;28;80965;-63
2021/05/01 06:44:44;;;;;;;7.15;4.50;;;23.40;40.50;;;;;;6227401;28;80634;-67
2021/05/01 06:47:44;;;;;;;7.50;5.07;;;23.40;41.70;;;;;;6234582;28;80364;-67
2021/05/01 06:50:45;;;;;;;8.40;5.15;;;23.40;43.10;;;;;;6231889;28;80301;-63
2021/05/01 06:53:45;;;;;;;12.50;8.30;;;23.40;45.00;;;;;;6233383;28;80119;-64
2021/05/01 06:56:46;;;;;;;12.85;9.95;;;23.40;47.50;;;;;;6214255;28;80637;-65
2021/05/01 06:59:47;;;;;;;12.55;8.70;;;23.50;47.00;;;;;;6231036;28;80370;-65
2021/05/01 07:02:47;;;;;;;14.05;9.45;;;23.50;46.30;;;;;;6230053;28;84551;-65
2021/05/01 07:05:48;;;;;;;17.35;13.07;;;23.50;48.60;;;;;;6233750;28;80565;-67
2021/05/01 07:08:49;;;;;;;21.77;11.30;;;23.50;50.50;;;;;;6226187;28;83018;-64
2021/05/01 07:11:49;;;;;;;22.02;11.85;;;23.50;48.80;;;;;;6207366;28;84513;-64
2021/05/01 07:14:50;;;;;;;23.92;12.38;;;23.50;51.20;;;;;;6220514;28;84186;-65
2021/05/01 07:17:51;;;;;;;34.80;13.95;;;23.50;53.10;;;;;;6215542;28;84061;-68
2021/05/01 07:20:52;;;;;;;20.45;11.95;;;23.50;55.60;;;;;;6225922;28;82997;-67
2021/05/01 07:23:52;;;;;;;26.63;12.95;;;23.60;56.80;;;;;;6230437;28;83646;-66
2021/05/01 07:26:53;;;;;;;33.35;14.65;;;23.60;55.50;;;;;;6221334;28;83643;-67
2021/05/01 07:29:53;;;;;;;33.97;14.55;;;23.60;58.20;;;;;;6224007;28;85692;-65
2021/05/01 07:32:54;;;;;;;25.63;13.15;;;23.60;56.80;;;;;;6234872;28;82821;-66
2021/05/01 07:35:54;;;;;;;23.60;13.00;;;23.60;58.10;;;;;;6229801;28;85803;-66
2021/05/01 07:38:57;;;;;;;35.85;13.23;;;23.70;60.00;;;;;;6222910;28;83266;-66
2021/05/01 07:41:58;;;;;;;30.02;13.75;;;23.70;60.30;;;;;;6228231;28;82999;-66
2021/05/01 07:44:58;;;;;;;25.42;13.52;;;23.70;59.70;;;;;;6225875;28;84059;-66
2021/05/01 07:48:00;;;;;;;24.13;12.40;;;23.70;60.00;;;;;;6229638;28;84330;-66
2021/05/01 07:51:00;;;;;;;24.98;12.35;;;23.70;57.30;;;;;;6224333;28;83218;-66
2021/05/01 07:54:01;;;;;;;22.70;10.93;;;23.60;57.40;;;;;;6225713;28;83860;-66
2021/05/01 07:57:01;;;;;;;26.67;10.13;;;23.70;58.00;;;;;;6222329;28;82859;-65
2021/05/01 08:00:02;;;;;;;27.52;10.40;;;23.60;57.00;;;;;;6230924;28;83207;-66
2021/05/01 08:03:02;;;;;;;22.23;9.80;;;23.70;56.50;;;;;;6223464;28;83807;-66
2021/05/01 08:06:03;;;;;;;13.98;7.82;;;23.70;55.80;;;;;;6222781;28;84461;-66
2021/05/01 08:09:04;;;;;;;16.92;8.25;;;23.70;55.20;;;;;;6232311;28;82220;-66
2021/05/01 08:12:04;;;;;;;15.82;7.25;;;23.70;54.60;;;;;;6230994;28;80451;-66
2021/05/01 08:15:05;;;;;;;14.55;6.85;;;23.70;53.80;;;;;;6232488;28;81552;-66
2021/05/01 08:18:05;;;;;;;14.98;7.90;;;23.60;53.40;;;;;;6234634;28;80529;-64
2021/05/01 08:21:06;;;;;;;12.95;7.30;;;23.70;52.70;;;;;;6229646;28;80429;-67
2021/05/01 08:24:06;;;;;;;18.33;8.70;;;23.70;52.30;;;;;;6232022;28;80538;-66
2021/05/01 08:27:07;;;;;;;12.77;6.45;;;23.60;51.30;;;;;;6224274;28;81506;-66
2021/05/01 08:30:07;;;;;;;14.95;6.63;;;23.70;50.90;;;;;;6225926;27;83831;-67
2021/05/01 08:33:08;;;;;;;14.30;7.00;;;23.70;50.70;;;;;;6236405;28;80438;-66
2021/05/01 08:36:08;;;;;;;15.40;7.47;;;23.70;50.10;;;;;;6235687;28;80417;-66
2021/05/01 08:39:09;;;;;;;12.63;6.55;;;23.70;50.10;;;;;;6235407;28;80415;-65
2021/05/01 08:42:09;;;;;;;15.75;6.82;;;23.80;49.50;;;;;;6231953;28;80607;-66
2021/05/01 08:45:10;;;;;;;8.82;5.88;;;23.80;49.40;;;;;;6237596;28;81142;-65
2021/05/01 08:48:10;;;;;;;9.18;6.10;;;23.80;49.30;;;;;;6236569;28;80389;-65
2021/05/01 08:51:11;;;;;;;10.93;6.22;;;23.70;49.10;;;;;;6218926;28;80783;-65
2021/05/01 08:54:12;;;;;;;10.60;6.30;;;23.70;49.00;;;;;;6239676;28;80879;-67
2021/05/01 08:57:12;;;;;;;11.48;6.22;;;23.70;48.40;;;;;;6242960;28;83079;-66
2021/05/01 09:00:13;;;;;;;13.57;7.03;;;23.70;48.40;;;;;;6239098;28;81552;-65
2021/05/01 09:03:13;;;;;;;13.80;6.55;;;23.70;47.80;;;;;;6233136;28;81264;-66
2021/05/01 09:06:14;;;;;;;13.27;6.53;;;23.70;48.10;;;;;;6225337;28;81217;-66
2021/05/01 09:09:14;;;;;;;12.85;6.45;;;23.70;47.60;;;;;;6229710;28;83482;-66
2021/05/01 09:12:15;;;;;;;9.93;6.63;;;23.70;47.50;;;;;;6233025;28;81947;-66
2021/05/01 09:15:15;;;;;;;9.00;6.40;;;23.70;47.50;;;;;;6229355;28;81643;-66
2021/05/01 09:18:16;;;;;;;11.50;6.63;;;23.70;47.10;;;;;;6235138;28;80627;-66
2021/05/01 09:21:17;;;;;;;9.45;6.32;;;23.70;46.80;;;;;;6229228;28;80092;-66
2021/05/01 09:24:17;;;;;;;11.98;6.72;;;23.70;46.30;;;;;;6228788;28;81404;-66
2021/05/01 09:27:18;;;;;;;12.15;7.00;;;23.70;46.10;;;;;;6228201;28;80630;-66
2021/05/01 09:30:18;;;;;;;9.95;6.57;;;23.70;46.10;;;;;;6202496;28;81181;-65
2021/05/01 09:33:19;;;;;;;12.10;6.47;;;23.70;46.50;;;;;;6226116;28;81374;-68
2021/05/01 09:36:20;;;;;;;10.63;6.82;;;23.70;46.00;;;;;;6225993;28;80741;-67
2021/05/01 09:39:20;;;;;;;11.07;6.65;;;23.70;46.00;;;;;;6227634;28;80530;-67
2021/05/01 09:42:21;;;;;;;10.88;6.97;;;23.60;45.80;;;;;;6209668;28;80918;-68
2021/05/01 09:45:22;;;;;;;12.48;7.53;;;23.70;45.60;;;;;;6221208;28;80619;-66
2021/05/01 09:48:22;;;;;;;10.35;6.82;;;23.60;45.60;;;;;;6206409;28;80897;-66
2021/05/01 09:51:23;;;;;;;10.82;6.20;;;23.60;46.50;;;;;;6208350;28;88385;-65
2021/05/01 09:54:24;;;;;;;15.70;7.22;;;23.60;46.20;;;;;;6214390;28;80769;-66
2021/05/01 09:57:24;;;;;;;12.48;6.82;;;23.60;46.00;;;;;;6224656;28;81041;-65
2021/05/01 10:00:25;;;;;;;12.15;6.93;;;23.60;46.40;;;;;;6228697;28;80530;-65
2021/05/01 10:03:25;;;;;;;10.00;7.18;;;23.60;46.70;;;;;;6230866;28;81216;-65
2021/05/01 10:06:26;;;;;;;10.60;6.88;;;23.60;46.60;;;;;;6232485;28;80282;-64
2021/05/01 10:09:26;;;;;;;11.45;6.32;;;23.70;46.70;;;;;;6231576;28;80742;-65
2021/05/01 10:12:27;;;;;;;11.55;6.82;;;23.70;46.70;;;;;;6226067;28;80783;-66
2021/05/01 10:15:27;;;;;;;10.02;6.65;;;23.80;46.60;;;;;;6224847;28;80161;-66
2021/05/01 10:18:28;;;;;;;10.02;6.70;;;23.80;46.40;;;;;;6240308;28;81785;-66
2021/05/01 10:21:28;;;;;;;9.88;6.45;;;23.80;46.60;;;;;;6229352;28;81463;-65
2021/05/01 10:24:29;;;;;;;11.00;6.53;;;23.80;46.50;;;;;;6228215;28;80419;-64
2021/05/01 10:27:29;;;;;;;11.13;7.00;;;23.80;46.40;;;;;;6221797;28;80301;-64
2021/05/01 10:30:34;;;;;;;12.48;6.65;;;23.80;46.10;;;;;;6226494;28;80810;-64
2021/05/01 10:33:37;;;;;;;8.80;5.90;;;23.80;46.40;;;;;;6231450;28;80706;-66
2021/05/01 10:36:38;;;;;;;9.30;5.72;;;23.80;46.20;;;;;;6228541;28;90589;-64
2021/05/01 10:39:38;;;;;;;9.82;7.00;;;23.80;46.10;;;;;;6230571;28;80406;-64
2021/05/01 10:42:39;;;;;;;11.65;6.28;;;23.80;45.70;;;;;;6227889;28;80493;-65
2021/05/01 10:45:39;;;;;;;8.95;6.00;;;23.80;45.10;;;;;;6226500;28;80340;-64
2021/05/01 10:48:40;;;;;;;9.80;6.80;;;23.80;44.80;;;;;;6227974;28;81457;-63
2021/05/01 10:51:41;;;;;;;9.90;6.53;;;23.80;44.50;;;;;;6235744;28;80365;-64
2021/05/01 10:54:41;;;;;;;8.80;5.68;;;23.80;44.30;;;;;;6236384;28;80695;-64
2021/05/01 10:57:42;;;;;;;9.13;6.22;;;23.80;44.30;;;;;;6229959;28;80604;-63
2021/05/01 11:00:42;;;;;;;10.77;7.40;;;23.80;44.10;;;;;;6232336;28;80276;-65
2021/05/01 11:03:43;;;;;;;11.48;5.88;;;23.80;43.70;;;;;;6211628;28;82504;-61
2021/05/01 11:06:43;;;;;;;9.18;6.30;;;23.70;43.80;;;;;;6227105;28;80451;-62
2021/05/01 11:09:44;;;;;;;10.38;6.30;;;23.80;43.80;;;;;;6224716;28;80172;-65
2021/05/01 11:12:44;;;;;;;9.00;6.57;;;23.80;43.70;;;;;;6227004;28;80576;-64
2021/05/01 11:15:46;;;;;;;11.07;6.75;;;23.80;43.80;;;;;;6232610;28;82567;-64
2021/05/01 11:18:46;;;;;;;13.20;6.90;;;23.80;43.20;;;;;;6232997;28;83549;-63
2021/05/01 11:21:47;;;;;;;10.88;6.47;;;23.80;43.10;;;;;;6213189;28;80989;-63
2021/05/01 11:24:47;;;;;;;11.18;7.05;;;23.80;43.00;;;;;;6217174;28;80197;-64
2021/05/01 11:27:48;;;;;;;9.95;7.28;;;23.70;42.90;;;;;;6218326;28;80775;-65
2021/05/01 11:30:48;;;;;;;10.98;9.13;;;23.80;43.00;;;;;;6225616;28;81237;-64
2021/05/01 11:33:49;;;;;;;16.27;11.77;;;23.80;42.30;;;;;;6210422;28;81595;-64
2021/05/01 11:36:50;;;;;;;15.65;11.80;;;23.70;41.70;;;;;;6217126;28;82776;-64
2021/05/01 11:39:50;;;;;;;13.48;10.93;;;23.80;41.80;;;;;;6218952;28;84458;-64
2021/05/01 11:42:51;;;;;;;14.65;11.00;;;23.80;41.20;;;;;;6216262;28;83268;-65
2021/05/01 11:45:51;;;;;;;13.48;11.18;;;23.70;41.90;;;;;;6226899;28;84145;-64
2021/05/01 11:48:53;;;;;;;15.90;12.15;;;23.70;41.70;;;;;;6225707;28;83119;-64
2021/05/01 11:51:53;;;;;;;14.70;11.45;;;23.60;41.40;;;;;;6224676;28;83020;-64
2021/05/01 11:54:54;;;;;;;15.13;11.93;;;23.60;41.40;;;;;;6240622;28;83016;-64
2021/05/01 11:57:57;;;;;;;15.73;11.68;;;23.60;41.40;;;;;;6226806;28;84027;-64
2021/05/01 12:00:58;;;;;;;17.25;12.43;;;23.60;41.20;;;;;;6223882;28;82901;-64
2021/05/01 12:03:59;;;;;;;15.25;11.60;;;23.60;41.30;;;;;;6224927;28;84624;-63
2021/05/01 12:06:59;;;;;;;15.52;12.05;;;23.50;41.00;;;;;;6209200;28;85989;-64
2021/05/01 12:10:00;;;;;;;15.60;11.95;;;23.60;41.10;;;;;;6227329;28;83011;-66
2021/05/01 12:13:00;;;;;;;15.85;12.10;;;23.50;41.00;;;;;;6226380;28;83012;-64
2021/05/01 12:16:01;;;;;;;19.13;13.73;;;23.50;40.50;;;;;;6225595;28;84097;-64
2021/05/01 12:19:01;;;;;;;17.27;13.02;;;23.60;40.60;;;;;;6226764;28;86116;-64
2021/05/01 12:22:02;;;;;;;18.65;13.07;;;23.60;40.40;;;;;;6226026;28;83111;-64
2021/05/01 12:25:02;;;;;;;18.17;13.07;;;23.60;40.70;;;;;;6223917;28;86939;-65
2021/05/01 12:28:03;;;;;;;19.63;13.38;;;23.60;40.80;;;;;;6219602;28;83197;-65
2021/05/01 12:31:03;;;;;;;19.17;12.77;;;23.50;40.90;;;;;;6226743;28;83907;-65
2021/05/01 12:34:04;;;;;;;18.83;13.45;;;23.50;40.80;;;;;;6223570;28;83639;-67
2021/05/01 12:37:04;;;;;;;16.35;12.55;;;23.50;40.60;;;;;;6191934;28;83196;-65
2021/05/01 12:40:06;;;;;;;16.27;11.52;;;23.50;40.50;;;;;;6218985;28;83577;-65
2021/05/01 12:43:07;;;;;;;14.07;11.25;;;23.60;40.90;;;;;;6223202;28;82650;-65
2021/05/01 12:46:07;;;;;;;17.83;11.98;;;23.60;41.00;;;;;;6225781;28;83323;-65
2021/05/01 12:49:08;;;;;;;19.23;12.40;;;23.70;41.50;;;;;;6223166;28;83422;-65
2021/05/01 12:52:09;;;;;;;15.43;11.55;;;23.70;41.20;;;;;;6220100;28;83177;-66
2021/05/01 12:55:09;;;;;;;15.85;12.68;;;23.70;41.20;;;;;;6224340;28;83646;-65
2021/05/01 12:58:10;;;;;;;15.68;12.15;;;23.70;41.30;;;;;;6223615;28;82987;-65
2021/05/01 13:01:10;;;;;;;18.52;12.05;;;23.70;41.00;;;;;;6224977;28;83258;-65
2021/05/01 13:04:11;;;;;;;17.45;12.43;;;23.70;41.20;;;;;;6226003;28;85015;-65
2021/05/01 13:07:12;;;;;;;14.20;11.05;;;23.70;41.30;;;;;;6224645;28;83186;-67
2021/05/01 13:10:12;;;;;;;12.75;11.20;;;23.80;41.50;;;;;;6224102;28;83492;-64
2021/05/01 13:13:14;;;;;;;16.42;12.20;;;23.80;41.50;;;;;;6223420;28;83396;-64
2021/05/01 13:16:15;;;;;;;14.30;10.20;;;23.80;41.40;;;;;;6221092;28;82902;-61
2021/05/01 13:19:15;;;;;;;13.25;9.77;;;23.70;41.40;;;;;;6223887;28;84374;-62
2021/05/01 13:22:16;;;;;;;15.43;10.30;;;23.70;41.80;;;;;;6226303;28;82880;-62
2021/05/01 13:25:17;;;;;;;15.07;9.40;;;23.80;41.80;;;;;;6218126;28;83140;-62
2021/05/01 13:28:18;;;;;;;12.20;9.25;;;23.80;41.90;;;;;;6225942;28;82768;-62
2021/05/01 13:31:18;;;;;;;14.07;10.02;;;23.80;41.80;;;;;;6228335;28;81068;-62
2021/05/01 13:34:19;;;;;;;12.73;9.85;;;23.80;41.80;;;;;;6198843;28;86719;-61
2021/05/01 13:37:19;;;;;;;11.68;8.82;;;23.80;42.60;;;;;;6226184;28;82903;-62
2021/05/01 13:40:20;;;;;;;14.40;9.10;;;23.80;42.30;;;;;;6229424;28;81454;-62
2021/05/01 13:43:20;;;;;;;13.00;8.82;;;23.80;42.20;;;;;;6224564;28;81273;-62
2021/05/01 13:46:22;;;;;;;12.80;8.98;;;23.80;42.20;;;;;;6237447;28;80414;-62
2021/05/01 13:49:22;;;;;;;13.80;8.80;;;23.80;42.50;;;;;;6229769;28;80740;-61
2021/05/01 13:52:23;;;;;;;12.57;9.35;;;23.80;42.60;;;;;;6210722;28;80724;-61
2021/05/01 13:55:23;;;;;;;12.90;8.85;;;23.80;42.80;;;;;;6231101;28;81288;-61
2021/05/01 13:58:24;;;;;;;14.73;10.00;;;23.80;42.90;;;;;;6225949;28;81052;-62
2021/05/01 14:01:24;;;;;;;12.30;8.60;;;23.80;43.30;;;;;;6227825;28;82751;-62
2021/05/01 14:04:25;;;;;;;10.45;8.57;;;23.80;42.70;;;;;;6221318;28;83801;-62
2021/05/01 14:07:25;;;;;;;12.48;9.38;;;23.80;43.10;;;;;;6229641;28;81786;-62
2021/05/01 14:10:30;;;;;;;14.68;8.68;;;23.80;42.70;;;;;;6230286;28;80917;-62
2021/05/01 14:13:32;;;;;;;14.50;8.82;;;23.80;43.20;;;;;;6225057;28;81701;-64
2021/05/01 14:16:33;;;;;;;14.18;9.32;;;23.80;43.20;;;;;;6225937;28;80820;-63
2021/05/01 14:19:33;;;;;;;12.45;8.63;;;23.80;42.80;;;;;;6236017;28;80792;-63
2021/05/01 14:22:34;;;;;;;13.80;9.60;;;23.80;42.90;;;;;;6228539;28;80903;-65
2021/05/01 14:25:34;;;;;;;13.98;10.35;;;23.80;43.00;;;;;;6231828;28;83000;-63
2021/05/01 14:28:37;;;;;;;13.90;9.85;;;23.80;42.80;;;;;;6221663;28;83422;-65
2021/05/01 14:31:38;;;;;;;16.17;10.07;;;23.80;43.10;;;;;;6230049;28;82919;-65
2021/05/01 14:34:38;;;;;;;11.38;8.68;;;23.80;42.90;;;;;;6217393;28;82949;-65
2021/05/01 14:37:39;;;;;;;12.48;9.30;;;23.80;42.90;;;;;;6231336;28;84555;-65
2021/05/01 14:40:39;;;;;;;12.52;9.68;;;23.80;42.60;;;;;;6230619;28;81561;-65
2021/05/01 14:43:40;;;;;;;12.63;9.48;;;23.80;42.60;;;;;;6222082;28;80665;-63
2021/05/01 14:46:41;;;;;;;16.48;12.35;;;23.80;42.40;;;;;;6223622;28;81427;-64
2021/05/01 14:49:41;;;;;;;18.25;13.00;;;23.70;42.40;;;;;;6222792;28;83389;-64
2021/05/01 14:52:42;;;;;;;18.65;13.25;;;23.70;42.50;;;;;;6207410;28;84233;-64
2021/05/01 14:55:42;;;;;;;17.73;13.73;;;23.70;42.50;;;;;;6226415;28;82786;-63
2021/05/01 14:58:43;;;;;;;21.67;14.10;;;23.70;42.50;;;;;;6207121;28;84663;-64
2021/05/01 15:01:43;;;;;;;37.53;17.02;;;23.60;42.30;;;;;;6228000;28;83436;-64
2021/05/01 15:04:44;;;;;;;27.85;15.93;;;23.60;42.20;;;;;;6225356;28;84161;-66
2021/05/01 15:07:44;;;;;;;26.52;17.15;;;23.60;42.70;;;;;;6226810;28;87145;-63
2021/05/01 15:10:45;;;;;;;26.17;16.95;;;23.60;42.80;;;;;;6220298;28;83526;-63
2021/05/01 15:13:46;;;;;;;25.75;15.77;;;23.60;42.80;;;;;;6216215;28;84116;-61
2021/05/01 15:16:46;;;;;;;19.92;14.48;;;23.60;43.40;;;;;;6224745;28;83239;-63
2021/05/01 15:19:47;;;;;;;20.23;15.05;;;23.50;42.60;;;;;;6207317;28;85723;-63
2021/05/01 15:22:47;;;;;;;29.58;16.48;;;23.50;42.90;;;;;;6200275;28;83902;-63
2021/05/01 15:25:48;;;;;;;21.75;14.52;;;23.50;42.90;;;;;;6227366;28;82982;-62
2021/05/01 15:28:50;;;;;;;22.13;14.98;;;23.50;42.80;;;;;;6226851;28;83040;-63